sensor_id;sensor_type;location;lat;lon;timestamp;pressure;altitude;pressure_sealevel;temperature;humidity
59531;BME280;45349;48.692;8.186;2023-05-23T00:02:02;98577.66;;;15.13;100.00
59531;BME280;45349;48.692;8.186;2023-05-23T00:04:34;98569.56;;;15.14;100.00
59531;BME280;45349;48.692;8.186;2023-05-23T00:07:01;98564.94;;;15.16;100.00
59531;BME280;45349;48.692;8.186;2023-05-23T00:09:54;98562.94;;;15.18;100.00
59531;BME280;45349;48.692;8.186;2023-05-23T00:12:21;98560.53;;;15.17;100.00
59531;BME280;45349;48.692;8.186;2023-05-23T00:14:47;98562.31;;;15.16;100.00
59531;BME280;45349;48.692;8.186;2023-05-23T00:17:14;98559.06;;;15.14;100.00
59531;BME280;45349;48.692;8.186;2023-05-23T00:19:41;98554.06;;;15.19;100.00
59531;BME280;45349;48.692;8.186;2023-05-23T00:22:11;98556.06;;;15.17;100.00
59531;BME280;45349;48.692;8.186;2023-05-23T00:24:39;98557.44;;;15.13;100.00
59531;BME280;45349;48.692;8.186;2023-05-23T00:27:07;98564.69;;;15.11;100.00
59531;BME280;45349;48.692;8.186;2023-05-23T00:29:34;98558.53;;;15.19;100.00
59531;BME280;45349;48.692;8.186;2023-05-23T00:32:01;98564.94;;;15.16;100.00
59531;BME280;45349;48.692;8.186;2023-05-23T00:34:37;98563.03;;;15.10;100.00
59531;BME280;45349;48.692;8.186;2023-05-23T00:37:04;98567.66;;;15.08;100.00
59531;BME280;45349;48.692;8.186;2023-05-23T00:39:34;98573.91;;;15.07;100.00
59531;BME280;45349;48.692;8.186;2023-05-23T00:42:03;98566.13;;;15.14;100.00
59531;BME280;45349;48.692;8.186;2023-05-23T00:44:36;98569.28;;;15.09;100.00
59531;BME280;45349;48.692;8.186;2023-05-23T00:47:03;98576.91;;;15.04;100.00
59531;BME280;45349;48.692;8.186;2023-05-23T00:49:35;98574.13;;;15.05;100.00
59531;BME280;45349;48.692;8.186;2023-05-23T00:52:01;98578.19;;;15.08;100.00
59531;BME280;45349;48.692;8.186;2023-05-23T00:54:35;98577.47;;;15.14;100.00
59531;BME280;45349;48.692;8.186;2023-05-23T00:57:02;98581.72;;;15.15;100.00
59531;BME280;45349;48.692;8.186;2023-05-23T00:59:36;98583.81;;;15.20;100.00
59531;BME280;45349;48.692;8.186;2023-05-23T01:02:03;98582.63;;;15.23;100.00
59531;BME280;45349;48.692;8.186;2023-05-23T01:04:35;98580.81;;;15.23;100.00
59531;BME280;45349;48.692;8.186;2023-05-23T01:07:01;98578.56;;;15.20;100.00
59531;BME280;45349;48.692;8.186;2023-05-23T01:09:53;98583.56;;;15.15;100.00
59531;BME280;45349;48.692;8.186;2023-05-23T01:12:24;98586.53;;;15.12;100.00
59531;BME280;45349;48.692;8.186;2023-05-23T01:15:01;98582.72;;;15.14;100.00
59531;BME280;45349;48.692;8.186;2023-05-23T01:17:39;98578.94;;;15.17;100.00
59531;BME280;45349;48.692;8.186;2023-05-23T01:20:09;98583.63;;;15.22;100.00
59531;BME280;45349;48.692;8.186;2023-05-23T01:23:19;98582.47;;;15.24;100.00
59531;BME280;45349;48.692;8.186;2023-05-23T01:28:58;98581.28;;;15.27;100.00
59531;BME280;45349;48.692;8.186;2023-05-23T01:31:31;98585.34;;;15.29;100.00
59531;BME280;45349;48.692;8.186;2023-05-23T01:34:00;98586.34;;;15.28;100.00
59531;BME280;45349;48.692;8.186;2023-05-23T01:36:27;98588.91;;;15.37;100.00
59531;BME280;45349;48.692;8.186;2023-05-23T01:38:56;98592.31;;;15.37;100.00
59531;BME280;45349;48.692;8.186;2023-05-23T01:41:22;98587.69;;;15.39;100.00
59531;BME280;45349;48.692;8.186;2023-05-23T01:43:49;98586.50;;;15.42;100.00
59531;BME280;45349;48.692;8.186;2023-05-23T01:46:17;98596.84;;;15.43;100.00
59531;BME280;45349;48.692;8.186;2023-05-23T01:48:45;98583.72;;;15.43;100.00
59531;BME280;45349;48.692;8.186;2023-05-23T01:51:13;98588.75;;;15.45;100.00
59531;BME280;45349;48.692;8.186;2023-05-23T01:53:40;98587.03;;;15.52;100.00
59531;BME280;45349;48.692;8.186;2023-05-23T01:56:07;98585.03;;;15.54;100.00
59531;BME280;45349;48.692;8.186;2023-05-23T01:58:33;98599.19;;;15.53;100.00
59531;BME280;45349;48.692;8.186;2023-05-23T02:01:00;98587.03;;;15.52;100.00
59531;BME280;45349;48.692;8.186;2023-05-23T02:03:28;98592.66;;;15.49;100.00
59531;BME280;45349;48.692;8.186;2023-05-23T02:05:55;98587.41;;;15.49;100.00
59531;BME280;45349;48.692;8.186;2023-05-23T02:08:21;98593.50;;;15.49;100.00
59531;BME280;45349;48.692;8.186;2023-05-23T02:10:48;98591.66;;;15.50;100.00
59531;BME280;45349;48.692;8.186;2023-05-23T02:13:14;98589.66;;;15.52;100.00
59531;BME280;45349;48.692;8.186;2023-05-23T02:15:41;98595.56;;;15.54;100.00
59531;BME280;45349;48.692;8.186;2023-05-23T02:18:08;98596.66;;;15.60;100.00
59531;BME280;45349;48.692;8.186;2023-05-23T02:20:39;98598.34;;;15.68;100.00
59531;BME280;45349;48.692;8.186;2023-05-23T02:23:06;98600.81;;;15.69;100.00
59531;BME280;45349;48.692;8.186;2023-05-23T02:25:33;98602.44;;;15.70;100.00
59531;BME280;45349;48.692;8.186;2023-05-23T02:28:00;98601.44;;;15.71;100.00
59531;BME280;45349;48.692;8.186;2023-05-23T02:30:26;98602.72;;;15.75;100.00
59531;BME280;45349;48.692;8.186;2023-05-23T02:32:53;98606.78;;;15.78;100.00
59531;BME280;45349;48.692;8.186;2023-05-23T02:35:21;98615.13;;;15.82;100.00
59531;BME280;45349;48.692;8.186;2023-05-23T02:37:49;98620.41;;;15.82;100.00
59531;BME280;45349;48.692;8.186;2023-05-23T02:40:16;98615.94;;;15.82;100.00
59531;BME280;45349;48.692;8.186;2023-05-23T02:42:42;98608.41;;;15.79;100.00
59531;BME280;45349;48.692;8.186;2023-05-23T02:45:09;98617.13;;;15.79;100.00
59531;BME280;45349;48.692;8.186;2023-05-23T02:47:36;98617.13;;;15.79;100.00
59531;BME280;45349;48.692;8.186;2023-05-23T02:50:03;98621.41;;;15.81;100.00
59531;BME280;45349;48.692;8.186;2023-05-23T02:52:31;98616.31;;;15.79;100.00
59531;BME280;45349;48.692;8.186;2023-05-23T02:54:59;98619.75;;;15.79;100.00
59531;BME280;45349;48.692;8.186;2023-05-23T02:57:27;98622.19;;;15.81;100.00
59531;BME280;45349;48.692;8.186;2023-05-23T02:59:54;98623.19;;;15.80;100.00
59531;BME280;45349;48.692;8.186;2023-05-23T03:02:21;98623.19;;;15.80;100.00
59531;BME280;45349;48.692;8.186;2023-05-23T03:04:47;98629.28;;;15.81;100.00
59531;BME280;45349;48.692;8.186;2023-05-23T03:07:15;98627.66;;;15.79;100.00
59531;BME280;45349;48.692;8.186;2023-05-23T03:09:41;98631.94;;;15.81;100.00
59531;BME280;45349;48.692;8.186;2023-05-23T03:12:09;98628.09;;;15.83;100.00
59531;BME280;45349;48.692;8.186;2023-05-23T03:14:36;98631.22;;;15.87;100.00
59531;BME280;45349;48.692;8.186;2023-05-23T03:17:02;98628.38;;;15.88;100.00
59531;BME280;45349;48.692;8.186;2023-05-23T03:19:35;98624.13;;;15.87;100.00
59531;BME280;45349;48.692;8.186;2023-05-23T03:22:01;98629.56;;;15.86;100.00
59531;BME280;45349;48.692;8.186;2023-05-23T03:24:53;98630.56;;;15.85;100.00
59531;BME280;45349;48.692;8.186;2023-05-23T03:27:21;98628.59;;;15.87;100.00
59531;BME280;45349;48.692;8.186;2023-05-23T03:29:48;98625.94;;;15.87;100.00
59531;BME280;45349;48.692;8.186;2023-05-23T03:32:14;98633.28;;;15.91;100.00
59531;BME280;45349;48.692;8.186;2023-05-23T03:34:41;98624.75;;;15.89;100.00
59531;BME280;45349;48.692;8.186;2023-05-23T03:37:10;98621.50;;;15.87;100.00
59531;BME280;45349;48.692;8.186;2023-05-23T03:39:36;98633.84;;;15.87;100.00
59531;BME280;45349;48.692;8.186;2023-05-23T03:42:03;98632.84;;;15.88;100.00
59531;BME280;45349;48.692;8.186;2023-05-23T03:44:36;98633.84;;;15.87;100.00
59531;BME280;45349;48.692;8.186;2023-05-23T03:47:05;98634.66;;;15.87;100.00
59531;BME280;45349;48.692;8.186;2023-05-23T03:49:38;98637.28;;;15.87;100.00
59531;BME280;45349;48.692;8.186;2023-05-23T03:52:04;98635.09;;;15.91;100.00
59531;BME280;45349;48.692;8.186;2023-05-23T03:54:35;98641.19;;;15.91;100.00
59531;BME280;45349;48.692;8.186;2023-05-23T03:57:02;98643.59;;;15.93;100.00
59531;BME280;45349;48.692;8.186;2023-05-23T03:59:37;98639.97;;;15.94;100.00
59531;BME280;45349;48.692;8.186;2023-05-23T04:02:08;98641.88;;;16.00;100.00
59531;BME280;45349;48.692;8.186;2023-05-23T04:04:35;98645.34;;;16.01;100.00
59531;BME280;45349;48.692;8.186;2023-05-23T04:07:01;98644.50;;;16.00;100.00
59531;BME280;45349;48.692;8.186;2023-05-23T04:09:35;98653.41;;;15.99;100.00
59531;BME280;45349;48.692;8.186;2023-05-23T04:12:04;98653.03;;;16.02;100.00
59531;BME280;45349;48.692;8.186;2023-05-23T04:14:35;98649.41;;;16.03;100.00
59531;BME280;45349;48.692;8.186;2023-05-23T04:17:05;98653.88;;;16.03;100.00
59531;BME280;45349;48.692;8.186;2023-05-23T04:19:36;98648.59;;;16.03;100.00
59531;BME280;45349;48.692;8.186;2023-05-23T04:22:02;98651.22;;;16.03;100.00
59531;BME280;45349;48.692;8.186;2023-05-23T04:24:36;98653.03;;;16.02;100.00
59531;BME280;45349;48.692;8.186;2023-05-23T04:27:28;98662.13;;;16.00;100.00
59531;BME280;45349;48.692;8.186;2023-05-23T04:29:55;98660.31;;;16.00;100.00
59531;BME280;45349;48.692;8.186;2023-05-23T04:32:24;98657.66;;;16.00;100.00
59531;BME280;45349;48.692;8.186;2023-05-23T04:34:53;98662.94;;;16.00;100.00
59531;BME280;45349;48.692;8.186;2023-05-23T04:37:21;98663.56;;;16.02;100.00
59531;BME280;45349;48.692;8.186;2023-05-23T04:39:51;98671.91;;;16.06;100.00
59531;BME280;45349;48.692;8.186;2023-05-23T04:42:40;98671.28;;;16.04;100.00
59531;BME280;45349;48.692;8.186;2023-05-23T04:45:23;98669.09;;;16.07;100.00
59531;BME280;45349;48.692;8.186;2023-05-23T04:48:01;98669.72;;;16.09;100.00
59531;BME280;45349;48.692;8.186;2023-05-23T04:50:34;98670.34;;;16.12;100.00
59531;BME280;45349;48.692;8.186;2023-05-23T04:53:03;98676.25;;;16.14;100.00
59531;BME280;45349;48.692;8.186;2023-05-23T04:55:29;98686.69;;;16.22;100.00
59531;BME280;45349;48.692;8.186;2023-05-23T04:57:56;98689.03;;;16.17;100.00
59531;BME280;45349;48.692;8.186;2023-05-23T05:00:23;98688.69;;;16.20;100.00
59531;BME280;45349;48.692;8.186;2023-05-23T05:02:50;98686.50;;;16.23;100.00
59531;BME280;45349;48.692;8.186;2023-05-23T05:05:18;98692.56;;;16.24;100.00
59531;BME280;45349;48.692;8.186;2023-05-23T05:07:44;98690.41;;;16.28;100.00
59531;BME280;45349;48.692;8.186;2023-05-23T05:10:11;98702.38;;;16.30;100.00
59531;BME280;45349;48.692;8.186;2023-05-23T05:12:41;98698.72;;;16.31;100.00
59531;BME280;45349;48.692;8.186;2023-05-23T05:15:10;98700.19;;;16.34;100.00
59531;BME280;45349;48.692;8.186;2023-05-23T05:17:38;98702.63;;;16.35;100.00
59531;BME280;45349;48.692;8.186;2023-05-23T05:20:08;98700.63;;;16.37;100.00
59531;BME280;45349;48.692;8.186;2023-05-23T05:22:38;98708.78;;;16.43;100.00
59531;BME280;45349;48.692;8.186;2023-05-23T05:25:07;98707.41;;;16.47;100.00
59531;BME280;45349;48.692;8.186;2023-05-23T05:27:34;98703.44;;;16.58;100.00
59531;BME280;45349;48.692;8.186;2023-05-23T05:30:05;98706.78;;;16.45;100.00
59531;BME280;45349;48.692;8.186;2023-05-23T05:32:38;98698.75;;;16.53;100.00
59531;BME280;45349;48.692;8.186;2023-05-23T05:35:05;98699.69;;;16.67;100.00
59531;BME280;45349;48.692;8.186;2023-05-23T05:37:33;98696.78;;;16.83;100.00
59531;BME280;45349;48.692;8.186;2023-05-23T05:40:01;98702.13;;;16.90;100.00
59531;BME280;45349;48.692;8.186;2023-05-23T05:42:32;98700.94;;;17.15;100.00
59531;BME280;45349;48.692;8.186;2023-05-23T05:44:59;98702.44;;;17.31;100.00
59531;BME280;45349;48.692;8.186;2023-05-23T05:47:26;98701.16;;;17.55;100.00
59531;BME280;45349;48.692;8.186;2023-05-23T05:49:54;98693.56;;;17.74;97.28
59531;BME280;45349;48.692;8.186;2023-05-23T05:52:21;98702.22;;;17.96;96.74
59531;BME280;45349;48.692;8.186;2023-05-23T05:54:48;98706.78;;;18.22;94.83
59531;BME280;45349;48.692;8.186;2023-05-23T05:57:16;98709.66;;;18.27;94.08
59531;BME280;45349;48.692;8.186;2023-05-23T05:59:42;98713.13;;;18.41;92.83
59531;BME280;45349;48.692;8.186;2023-05-23T06:02:09;98710.94;;;18.52;92.58
59531;BME280;45349;48.692;8.186;2023-05-23T06:04:36;98714.97;;;18.48;94.19
59531;BME280;45349;48.692;8.186;2023-05-23T06:07:02;98708.06;;;18.40;91.53
59531;BME280;45349;48.692;8.186;2023-05-23T06:09:35;98710.28;;;18.36;89.95
59531;BME280;45349;48.692;8.186;2023-05-23T06:12:02;98710.28;;;18.36;89.48
59531;BME280;45349;48.692;8.186;2023-05-23T06:14:55;98713.13;;;18.35;89.49
59531;BME280;45349;48.692;8.186;2023-05-23T06:17:21;98717.00;;;18.39;89.52
59531;BME280;45349;48.692;8.186;2023-05-23T06:19:48;98713.94;;;18.28;86.49
59531;BME280;45349;48.692;8.186;2023-05-23T06:22:15;98712.13;;;18.42;86.80
59531;BME280;45349;48.692;8.186;2023-05-23T06:24:42;98720.69;;;18.65;87.00
59531;BME280;45349;48.692;8.186;2023-05-23T06:27:08;98724.34;;;18.64;85.30
59531;BME280;45349;48.692;8.186;2023-05-23T06:29:35;98726.63;;;18.73;85.97
59531;BME280;45349;48.692;8.186;2023-05-23T06:32:03;98731.69;;;18.68;81.95
59531;BME280;45349;48.692;8.186;2023-05-23T06:34:35;98735.72;;;18.44;82.92
59531;BME280;45349;48.692;8.186;2023-05-23T06:37:01;98740.94;;;18.24;82.43
59531;BME280;45349;48.692;8.186;2023-05-23T06:39:34;98739.47;;;18.14;84.00
59531;BME280;45349;48.692;8.186;2023-05-23T06:42:01;98745.81;;;18.27;82.65
59531;BME280;45349;48.692;8.186;2023-05-23T06:44:50;98746.41;;;18.22;83.49
59531;BME280;45349;48.692;8.186;2023-05-23T06:47:19;98743.16;;;18.27;83.79
59531;BME280;45349;48.692;8.186;2023-05-23T06:49:45;98753.41;;;18.43;84.54
59531;BME280;45349;48.692;8.186;2023-05-23T06:52:12;98754.44;;;18.56;81.92
59531;BME280;45349;48.692;8.186;2023-05-23T06:54:40;98760.34;;;18.65;80.33
59531;BME280;45349;48.692;8.186;2023-05-23T06:57:06;98774.41;;;18.65;79.45
59531;BME280;45349;48.692;8.186;2023-05-23T06:59:35;98764.13;;;18.28;81.31
59531;BME280;45349;48.692;8.186;2023-05-23T07:02:03;98773.44;;;17.82;84.18
59531;BME280;45349;48.692;8.186;2023-05-23T07:04:36;98765.66;;;17.74;84.96
59531;BME280;45349;48.692;8.186;2023-05-23T07:07:09;98779.25;;;17.71;85.22
59531;BME280;45349;48.692;8.186;2023-05-23T07:09:36;98789.34;;;17.61;85.18
59531;BME280;45349;48.692;8.186;2023-05-23T07:12:08;98787.56;;;17.39;83.12
59531;BME280;45349;48.692;8.186;2023-05-23T07:14:38;98794.56;;;17.54;83.51
59531;BME280;45349;48.692;8.186;2023-05-23T07:17:05;98799.53;;;17.42;82.67
59531;BME280;45349;48.692;8.186;2023-05-23T07:19:36;98795.75;;;17.51;81.59
59531;BME280;45349;48.692;8.186;2023-05-23T07:22:03;98799.53;;;17.70;79.65
59531;BME280;45349;48.692;8.186;2023-05-23T07:24:37;98794.72;;;17.74;78.74
59531;BME280;45349;48.692;8.186;2023-05-23T07:27:04;98793.41;;;17.92;76.95
59531;BME280;45349;48.692;8.186;2023-05-23T07:29:36;98789.41;;;18.03;76.97
59531;BME280;45349;48.692;8.186;2023-05-23T07:32:03;98788.09;;;18.27;75.99
59531;BME280;45349;48.692;8.186;2023-05-23T07:34:37;98790.78;;;18.40;75.68
59531;BME280;45349;48.692;8.186;2023-05-23T07:37:04;98793.06;;;18.02;77.16
59531;BME280;45349;48.692;8.186;2023-05-23T07:39:41;98791.28;;;18.15;76.67
59531;BME280;45349;48.692;8.186;2023-05-23T07:42:07;98792.91;;;18.17;78.03
59531;BME280;45349;48.692;8.186;2023-05-23T07:44:36;98796.81;;;17.85;78.88
59531;BME280;45349;48.692;8.186;2023-05-23T07:47:03;98797.91;;;17.98;78.81
59531;BME280;45349;48.692;8.186;2023-05-23T07:49:35;98800.72;;;17.96;78.27
59531;BME280;45349;48.692;8.186;2023-05-23T07:52:04;98789.47;;;17.81;78.00
59531;BME280;45349;48.692;8.186;2023-05-23T07:54:35;98811.09;;;17.98;77.47
59531;BME280;45349;48.692;8.186;2023-05-23T07:57:03;98810.25;;;18.26;76.76
59531;BME280;45349;48.692;8.186;2023-05-23T07:59:35;98808.13;;;18.56;72.99
59531;BME280;45349;48.692;8.186;2023-05-23T08:02:02;98821.59;;;18.68;73.65
59531;BME280;45349;48.692;8.186;2023-05-23T08:04:35;98816.75;;;18.85;71.14
59531;BME280;45349;48.692;8.186;2023-05-23T08:07:04;98818.44;;;18.44;72.80
59531;BME280;45349;48.692;8.186;2023-05-23T08:09:42;98825.53;;;18.37;73.75
59531;BME280;45349;48.692;8.186;2023-05-23T08:12:12;98829.47;;;18.48;72.61
59531;BME280;45349;48.692;8.186;2023-05-23T08:14:39;98821.94;;;18.52;72.50
59531;BME280;45349;48.692;8.186;2023-05-23T08:17:15;98823.22;;;18.69;72.06
59531;BME280;45349;48.692;8.186;2023-05-23T08:19:42;98829.44;;;19.17;74.63
59531;BME280;45349;48.692;8.186;2023-05-23T08:22:10;98838.00;;;19.46;74.98
59531;BME280;45349;48.692;8.186;2023-05-23T08:24:37;98831.09;;;19.45;71.56
59531;BME280;45349;48.692;8.186;2023-05-23T08:27:04;98831.50;;;19.55;69.99
59531;BME280;45349;48.692;8.186;2023-05-23T08:29:35;98835.34;;;19.19;71.67
59531;BME280;45349;48.692;8.186;2023-05-23T08:32:03;98841.88;;;19.30;72.82
59531;BME280;45349;48.692;8.186;2023-05-23T08:34:35;98843.31;;;19.73;69.58
59531;BME280;45349;48.692;8.186;2023-05-23T08:37:02;98838.66;;;19.55;67.57
59531;BME280;45349;48.692;8.186;2023-05-23T08:39:36;98851.66;;;19.90;67.50
59531;BME280;45349;48.692;8.186;2023-05-23T08:42:23;98848.59;;;19.59;67.93
59531;BME280;45349;48.692;8.186;2023-05-23T08:44:50;98844.94;;;19.74;68.55
59531;BME280;45349;48.692;8.186;2023-05-23T08:47:18;98844.69;;;19.15;69.71
59531;BME280;45349;48.692;8.186;2023-05-23T08:49:54;98840.72;;;18.77;71.77
59531;BME280;45349;48.692;8.186;2023-05-23T08:52:24;98849.16;;;18.46;73.45
59531;BME280;45349;48.692;8.186;2023-05-23T08:54:56;98847.38;;;18.59;72.94
59531;BME280;45349;48.692;8.186;2023-05-23T08:57:23;98852.88;;;18.58;73.89
59531;BME280;45349;48.692;8.186;2023-05-23T08:59:56;98850.00;;;19.08;72.32
59531;BME280;45349;48.692;8.186;2023-05-23T09:02:23;98861.03;;;19.39;69.25
59531;BME280;45349;48.692;8.186;2023-05-23T09:04:54;98854.69;;;19.87;67.33
59531;BME280;45349;48.692;8.186;2023-05-23T09:07:24;98861.44;;;19.49;66.14
59531;BME280;45349;48.692;8.186;2023-05-23T09:09:52;98869.38;;;19.83;66.04
59531;BME280;45349;48.692;8.186;2023-05-23T09:12:20;98873.63;;;20.11;64.82
59531;BME280;45349;48.692;8.186;2023-05-23T09:14:49;98871.69;;;20.52;62.44
59531;BME280;45349;48.692;8.186;2023-05-23T09:17:17;98872.81;;;20.17;62.39
59531;BME280;45349;48.692;8.186;2023-05-23T09:19:45;98876.94;;;19.93;64.29
59531;BME280;45349;48.692;8.186;2023-05-23T09:22:23;98872.44;;;20.06;62.90
59531;BME280;45349;48.692;8.186;2023-05-23T09:24:59;98877.72;;;19.32;66.15
59531;BME280;45349;48.692;8.186;2023-05-23T09:27:28;98871.84;;;19.98;65.55
59531;BME280;45349;48.692;8.186;2023-05-23T09:29:55;98863.97;;;20.50;64.34
59531;BME280;45349;48.692;8.186;2023-05-23T09:32:24;98876.97;;;21.04;61.72
59531;BME280;45349;48.692;8.186;2023-05-23T09:34:55;98875.28;;;20.05;62.39
59531;BME280;45349;48.692;8.186;2023-05-23T09:37:28;98875.84;;;19.13;64.96
59531;BME280;45349;48.692;8.186;2023-05-23T09:39:56;98874.25;;;19.32;65.06
59531;BME280;45349;48.692;8.186;2023-05-23T09:42:23;98875.50;;;19.50;66.26
59531;BME280;45349;48.692;8.186;2023-05-23T09:44:52;98877.50;;;19.21;66.02
59531;BME280;45349;48.692;8.186;2023-05-23T09:47:19;98884.56;;;19.00;67.13
59531;BME280;45349;48.692;8.186;2023-05-23T09:49:46;98873.63;;;19.23;66.50
59531;BME280;45349;48.692;8.186;2023-05-23T09:52:12;98877.13;;;19.51;66.24
59531;BME280;45349;48.692;8.186;2023-05-23T09:54:39;98882.22;;;19.66;66.12
59531;BME280;45349;48.692;8.186;2023-05-23T09:57:09;98885.47;;;20.01;64.70
59531;BME280;45349;48.692;8.186;2023-05-23T09:59:38;98886.28;;;19.55;66.01
59531;BME280;45349;48.692;8.186;2023-05-23T10:02:10;98879.97;;;19.62;65.86
59531;BME280;45349;48.692;8.186;2023-05-23T10:04:38;98877.53;;;19.54;66.44
59531;BME280;45349;48.692;8.186;2023-05-23T10:07:12;98878.16;;;19.50;67.20
59531;BME280;45349;48.692;8.186;2023-05-23T10:09:41;98883.81;;;19.87;67.65
59531;BME280;45349;48.692;8.186;2023-05-23T10:12:41;98880.59;;;20.77;63.75
59531;BME280;45349;48.692;8.186;2023-05-23T10:15:12;98881.47;;;20.58;62.99
59531;BME280;45349;48.692;8.186;2023-05-23T10:17:51;98885.91;;;20.64;62.12
59531;BME280;45349;48.692;8.186;2023-05-23T10:20:21;98893.44;;;20.01;63.49
59531;BME280;45349;48.692;8.186;2023-05-23T10:22:51;98887.09;;;19.35;66.60
59531;BME280;45349;48.692;8.186;2023-05-23T10:25:18;98886.69;;;19.45;66.02
59531;BME280;45349;48.692;8.186;2023-05-23T10:27:47;98886.09;;;19.56;65.24
59531;BME280;45349;48.692;8.186;2023-05-23T10:30:14;98887.50;;;19.39;65.65
59531;BME280;45349;48.692;8.186;2023-05-23T10:32:43;98897.72;;;19.89;63.93
59531;BME280;45349;48.692;8.186;2023-05-23T10:35:17;98892.38;;;19.35;64.15
59531;BME280;45349;48.692;8.186;2023-05-23T10:37:52;98888.38;;;18.91;67.08
59531;BME280;45349;48.692;8.186;2023-05-23T10:40:27;98888.72;;;19.43;64.70
59531;BME280;45349;48.692;8.186;2023-05-23T10:43:01;98887.25;;;19.13;65.47
59531;BME280;45349;48.692;8.186;2023-05-23T10:45:38;98886.28;;;19.41;63.86
59531;BME280;45349;48.692;8.186;2023-05-23T10:48:19;98898.09;;;19.52;64.33
59531;BME280;45349;48.692;8.186;2023-05-23T10:51:00;98897.06;;;19.87;63.14
59531;BME280;45349;48.692;8.186;2023-05-23T10:53:28;98894.47;;;19.94;62.41
59531;BME280;45349;48.692;8.186;2023-05-23T10:55:55;98896.66;;;20.89;60.98
59531;BME280;45349;48.692;8.186;2023-05-23T10:58:22;98907.03;;;20.39;59.95
59531;BME280;45349;48.692;8.186;2023-05-23T11:00:52;98910.41;;;20.66;60.34
59531;BME280;45349;48.692;8.186;2023-05-23T11:03:31;98906.69;;;20.81;59.74
59531;BME280;45349;48.692;8.186;2023-05-23T11:05:59;98906.03;;;20.19;61.81
59531;BME280;45349;48.692;8.186;2023-05-23T11:08:26;98914.44;;;20.03;60.04
59531;BME280;45349;48.692;8.186;2023-05-23T11:10:58;98911.13;;;19.47;62.53
59531;BME280;45349;48.692;8.186;2023-05-23T11:13:25;98915.19;;;19.76;61.44
59531;BME280;45349;48.692;8.186;2023-05-23T11:15:52;98917.41;;;20.40;58.98
59531;BME280;45349;48.692;8.186;2023-05-23T11:18:19;98908.47;;;20.14;60.21
59531;BME280;45349;48.692;8.186;2023-05-23T11:20:48;98906.06;;;19.66;62.55
59531;BME280;45349;48.692;8.186;2023-05-23T11:23:16;98904.75;;;20.49;59.85
59531;BME280;45349;48.692;8.186;2023-05-23T11:25:43;98905.25;;;20.85;58.79
59531;BME280;45349;48.692;8.186;2023-05-23T11:28:11;98905.72;;;20.61;57.70
59531;BME280;45349;48.692;8.186;2023-05-23T11:30:38;98896.69;;;20.83;57.13
59531;BME280;45349;48.692;8.186;2023-05-23T11:33:09;98902.50;;;20.46;58.29
59531;BME280;45349;48.692;8.186;2023-05-23T11:35:39;98903.16;;;20.28;57.46
59531;BME280;45349;48.692;8.186;2023-05-23T11:38:07;98901.38;;;19.81;60.92
59531;BME280;45349;48.692;8.186;2023-05-23T11:40:36;98902.06;;;20.56;58.82
59531;BME280;45349;48.692;8.186;2023-05-23T11:43:04;98903.28;;;20.67;57.76
59531;BME280;45349;48.692;8.186;2023-05-23T11:45:31;98907.09;;;19.98;60.16
59531;BME280;45349;48.692;8.186;2023-05-23T11:48:04;98902.00;;;19.90;59.76
59531;BME280;45349;48.692;8.186;2023-05-23T11:50:30;98895.84;;;20.16;59.51
59531;BME280;45349;48.692;8.186;2023-05-23T11:52:57;98899.94;;;19.52;59.34
59531;BME280;45349;48.692;8.186;2023-05-23T11:55:26;98899.91;;;19.65;60.10
59531;BME280;45349;48.692;8.186;2023-05-23T11:57:55;98904.00;;;19.81;58.96
59531;BME280;45349;48.692;8.186;2023-05-23T12:00:21;98903.16;;;20.28;58.12
59531;BME280;45349;48.692;8.186;2023-05-23T12:02:48;98894.63;;;19.79;58.28
59531;BME280;45349;48.692;8.186;2023-05-23T12:05:14;98899.94;;;19.79;58.04
59531;BME280;45349;48.692;8.186;2023-05-23T12:07:42;98892.59;;;19.87;59.27
59531;BME280;45349;48.692;8.186;2023-05-23T12:10:09;98892.81;;;19.79;58.55
59531;BME280;45349;48.692;8.186;2023-05-23T12:12:37;98899.03;;;20.45;57.36
59531;BME280;45349;48.692;8.186;2023-05-23T12:15:07;98882.81;;;20.01;58.55
59531;BME280;45349;48.692;8.186;2023-05-23T12:17:35;98890.94;;;20.20;56.73
59531;BME280;45349;48.692;8.186;2023-05-23T12:20:02;98889.50;;;20.17;57.65
59531;BME280;45349;48.692;8.186;2023-05-23T12:22:29;98882.03;;;20.01;57.65
59531;BME280;45349;48.692;8.186;2023-05-23T12:24:56;98881.69;;;20.49;58.05
59531;BME280;45349;48.692;8.186;2023-05-23T12:27:26;98877.34;;;20.62;55.04
59531;BME280;45349;48.692;8.186;2023-05-23T12:30:05;98878.00;;;20.50;57.83
59531;BME280;45349;48.692;8.186;2023-05-23T12:32:33;98874.94;;;21.06;56.15
59531;BME280;45349;48.692;8.186;2023-05-23T12:35:00;98875.88;;;21.50;54.84
59531;BME280;45349;48.692;8.186;2023-05-23T12:37:27;98876.16;;;21.35;54.14
59531;BME280;45349;48.692;8.186;2023-05-23T12:39:55;98874.09;;;22.14;53.35
59531;BME280;45349;48.692;8.186;2023-05-23T12:42:21;98870.19;;;22.16;53.10
59531;BME280;45349;48.692;8.186;2023-05-23T12:44:50;98875.13;;;21.68;53.83
59531;BME280;45349;48.692;8.186;2023-05-23T12:47:18;98873.50;;;22.11;51.61
59531;BME280;45349;48.692;8.186;2023-05-23T12:49:45;98875.22;;;22.06;51.62
59531;BME280;45349;48.692;8.186;2023-05-23T12:52:12;98877.00;;;21.29;53.95
59531;BME280;45349;48.692;8.186;2023-05-23T12:54:39;98870.50;;;21.82;52.97
59531;BME280;45349;48.692;8.186;2023-05-23T12:57:05;98881.69;;;21.02;53.65
59531;BME280;45349;48.692;8.186;2023-05-23T12:59:35;98867.97;;;21.12;53.95
59531;BME280;45349;48.692;8.186;2023-05-23T13:02:01;98863.25;;;21.14;53.92
59531;BME280;45349;48.692;8.186;2023-05-23T13:04:55;98867.19;;;21.04;54.87
59531;BME280;45349;48.692;8.186;2023-05-23T13:07:21;98868.56;;;20.68;54.94
59531;BME280;45349;48.692;8.186;2023-05-23T13:09:48;98862.38;;;20.29;56.99
59531;BME280;45349;48.692;8.186;2023-05-23T13:12:15;98857.53;;;20.71;58.53